createdAt,value
2023-08-20T04:46:28.647Z,100.00
2023-08-20T05:14:11.671Z,87.40
2023-08-20T05:16:38.190Z,83.88
2023-08-20T05:19:05.075Z,81.44
2023-08-20T05:21:31.555Z,79.15
2023-08-20T05:23:58.082Z,77.95
2023-08-20T05:26:24.677Z,76.86
2023-08-20T05:28:51.140Z,75.76
2023-08-20T05:31:17.630Z,75.62
2023-08-20T05:33:44.168Z,74.98
2023-08-20T05:36:10.713Z,72.86
2023-08-20T05:38:37.239Z,75.52
2023-08-20T05:41:03.740Z,77.62
2023-08-20T05:43:30.198Z,79.04
2023-08-20T05:45:56.782Z,80.88
2023-08-20T05:48:23.413Z,83.96
2023-08-20T05:50:49.902Z,81.77
2023-08-20T05:53:16.507Z,83.87
2023-08-20T05:55:42.976Z,83.17
2023-08-20T05:58:09.427Z,79.49
2023-08-20T06:00:35.897Z,77.47
2023-08-20T06:03:02.485Z,77.17
2023-08-20T06:05:29.204Z,78.32
2023-08-20T06:07:55.773Z,77.77
2023-08-20T06:10:22.238Z,72.02
2023-08-20T06:12:48.767Z,68.71
2023-08-20T06:15:15.789Z,65.77
2023-08-20T06:17:42.353Z,63.40
2023-08-20T06:20:09.835Z,60.77
2023-08-20T06:22:36.471Z,59.53
2023-08-20T06:25:03.573Z,59.86
2023-08-20T06:27:30.067Z,57.95
2023-08-20T06:29:56.674Z,56.31
2023-08-20T06:32:24.935Z,55.86
2023-08-20T06:34:51.416Z,53.94
2023-08-20T06:37:18.021Z,52.30
2023-08-20T06:39:44.829Z,52.94
2023-08-20T06:42:11.674Z,53.86
2023-08-20T06:44:38.361Z,53.66
2023-08-20T06:47:05.052Z,51.94
2023-08-20T06:49:31.958Z,47.95
2023-08-20T06:51:58.466Z,45.92
2023-08-20T06:54:25.056Z,47.34
2023-08-20T06:56:51.555Z,45.24
2023-08-20T06:59:18.527Z,47.34
2023-08-20T07:01:45.122Z,47.98
2023-08-20T07:04:11.738Z,47.33
2023-08-20T07:06:38.255Z,46.74
2023-08-20T07:09:05.021Z,44.51
2023-08-20T07:11:31.715Z,44.53
2023-08-20T07:13:58.182Z,44.38
2023-08-20T07:16:24.756Z,44.09
2023-08-20T07:18:51.210Z,42.89
2023-08-20T07:21:17.675Z,42.95
2023-08-20T07:23:44.243Z,42.13
2023-08-20T07:26:13.316Z,41.14
2023-08-20T07:28:58.126Z,40.94
2023-08-20T07:31:29.432Z,37.72
2023-08-20T07:33:57.236Z,40.41
2023-08-20T07:36:25.712Z,39.52
2023-08-20T07:38:53.433Z,38.63
2023-08-20T07:41:21.023Z,40.29
2023-08-20T07:43:48.791Z,41.13
2023-08-20T07:46:16.141Z,42.71
2023-08-20T07:48:43.218Z,39.12
2023-08-20T07:51:10.117Z,39.05
2023-08-20T07:53:36.592Z,40.44
2023-08-20T07:56:03.249Z,40.63
2023-08-20T07:58:31.006Z,41.18
2023-08-20T08:00:58.720Z,42.63
2023-08-20T08:03:28.590Z,42.70
2023-08-20T08:05:55.881Z,41.30
2023-08-20T08:08:23.258Z,42.67
2023-08-20T08:10:50.105Z,42.36
2023-08-20T08:13:19.994Z,40.85
2023-08-20T08:15:47.021Z,41.75
2023-08-20T08:18:13.614Z,42.13
2023-08-20T08:20:40.269Z,41.99
2023-08-20T08:23:06.772Z,39.74
2023-08-20T08:25:33.615Z,42.92
2023-08-20T08:28:01.184Z,39.14
2023-08-20T08:30:28.988Z,39.88
2023-08-20T08:32:55.506Z,42.08
2023-08-20T08:35:22.093Z,41.93
2023-08-20T08:37:48.764Z,42.71
2023-08-20T08:40:15.528Z,42.18
2023-08-20T08:42:43.893Z,44.01
2023-08-20T08:45:11.931Z,44.27
2023-08-20T08:47:40.649Z,42.83
2023-08-20T08:50:08.667Z,43.62
2023-08-20T08:52:37.571Z,44.57
2023-08-20T08:55:06.098Z,42.33
2023-08-20T08:57:32.844Z,43.12
2023-08-20T09:00:02.819Z,45.02
2023-08-20T09:02:29.294Z,45.12
2023-08-20T09:04:56.478Z,45.68
2023-08-20T09:07:22.926Z,47.24
2023-08-20T09:09:50.536Z,45.89
2023-08-20T09:12:18.917Z,46.37
2023-08-20T09:14:50.532Z,47.60
2023-08-20T09:17:17.656Z,46.74
2023-08-20T09:19:45.723Z,46.77
2023-08-20T09:22:13.753Z,46.83
2023-08-20T09:24:47.144Z,46.50
2023-08-20T09:27:14.424Z,48.46
2023-08-20T09:29:51.980Z,47.80
2023-08-20T09:32:20.746Z,50.04
2023-08-20T09:34:49.264Z,47.29
2023-08-20T09:37:17.530Z,48.70
2023-08-20T09:39:44.763Z,48.61
2023-08-20T09:42:12.362Z,50.57
2023-08-20T09:44:49.321Z,50.75
2023-08-20T09:47:17.784Z,50.72
2023-08-20T09:49:49.119Z,50.66
2023-08-20T09:52:40.655Z,51.15
2023-08-20T09:55:14.443Z,50.08
2023-08-20T09:57:44.309Z,47.94
2023-08-20T10:00:14.079Z,44.44
2023-08-20T10:02:41.866Z,43.43
2023-08-20T10:05:10.014Z,44.27
2023-08-20T10:07:37.801Z,43.91
2023-08-20T10:10:11.357Z,44.83
2023-08-20T10:12:40.253Z,44.49
2023-08-20T10:15:09.765Z,44.90
2023-08-20T10:17:38.270Z,44.12
2023-08-20T10:20:06.131Z,41.55
2023-08-20T10:22:46.228Z,43.76
2023-08-20T10:25:23.530Z,42.59
2023-08-20T10:27:50.139Z,43.55
2023-08-20T10:30:26.220Z,42.90
2023-08-20T10:32:55.047Z,42.19
2023-08-20T10:35:27.305Z,43.57
2023-08-20T10:38:15.630Z,42.55
2023-08-20T10:40:57.605Z,42.14
2023-08-20T10:43:26.878Z,42.12
2023-08-20T10:46:19.779Z,41.68
2023-08-20T10:48:57.045Z,41.09
2023-08-20T10:51:27.471Z,41.60
2023-08-20T10:54:03.477Z,39.87
2023-08-20T10:56:46.008Z,39.73
2023-08-20T10:59:17.912Z,40.63
2023-08-20T11:01:49.083Z,41.17
2023-08-20T11:04:21.308Z,40.55
2023-08-20T11:06:50.505Z,40.19
2023-08-20T11:09:17.319Z,40.87
2023-08-20T11:11:43.885Z,39.12
2023-08-20T11:14:21.320Z,41.36
2023-08-20T11:17:05.307Z,40.10
2023-08-20T11:19:36.449Z,39.49
2023-08-20T11:22:18.406Z,38.15
2023-08-20T11:27:46.035Z,40.13
2023-08-20T11:30:33.305Z,40.74
2023-08-20T11:33:32.276Z,39.96
2023-08-20T11:36:16.208Z,39.56
2023-08-20T11:42:08.409Z,38.90
2023-08-20T11:44:49.817Z,38.71
2023-08-20T11:47:31.585Z,38.09
2023-08-20T11:50:18.296Z,38.41
2023-08-20T11:53:14.424Z,38.67
2023-08-20T11:56:01.480Z,38.71
2023-08-20T11:58:38.267Z,38.69
2023-08-20T12:01:24.704Z,39.38
2023-08-20T12:04:17.523Z,39.99
2023-08-20T12:08:20.057Z,40.21
2023-08-20T12:10:35.305Z,39.79
2023-08-20T12:16:22.918Z,40.59
2023-08-20T12:19:14.028Z,39.86
2023-08-20T12:21:50.499Z,39.40
2023-08-20T12:24:53.812Z,41.19
2023-08-20T12:27:29.489Z,40.48
2023-08-20T12:30:08.890Z,39.63
2023-08-20T12:32:46.722Z,39.18
2023-08-20T12:35:18.723Z,39.57
2023-08-20T12:38:05.051Z,40.04
2023-08-20T12:40:40.225Z,41.02
2023-08-20T12:43:28.019Z,40.29
2023-08-20T12:46:05.217Z,41.04
2023-08-20T12:48:49.194Z,38.97
2023-08-20T12:51:28.011Z,38.99
2023-08-20T12:54:02.874Z,39.25
2023-08-20T12:59:10.219Z,38.78
2023-08-20T13:01:48.912Z,40.25
2023-08-20T13:04:47.111Z,39.78
2023-08-20T13:07:26.465Z,39.59
2023-08-20T13:10:13.031Z,39.28
2023-08-20T13:12:48.375Z,40.72
2023-08-20T13:15:30.462Z,40.74
2023-08-20T13:18:03.864Z,40.92
2023-08-20T13:20:44.431Z,41.92
2023-08-20T13:23:14.724Z,41.37
2023-08-20T13:25:55.749Z,41.02
2023-08-20T13:28:34.610Z,40.89
2023-08-20T13:31:10.036Z,40.42
2023-08-20T13:33:55.046Z,40.99
2023-08-20T13:36:27.871Z,40.76
2023-08-20T13:39:04.149Z,41.72
2023-08-20T13:41:49.314Z,41.00
2023-08-20T13:48:33.922Z,41.07
2023-08-20T13:57:39.244Z,40.89
2023-08-20T14:00:42.666Z,40.68
2023-08-20T14:03:40.519Z,40.83
2023-08-20T14:09:40.559Z,40.74
2023-08-20T14:18:20.862Z,39.77
2023-08-20T14:20:53.293Z,39.76
2023-08-20T14:27:24.657Z,41.07
2023-08-20T14:31:12.257Z,41.01
2023-08-20T14:33:58.375Z,41.34
2023-08-20T14:36:38.600Z,40.51
2023-08-20T14:42:32.566Z,40.91
2023-08-20T14:52:13.946Z,42.42
2023-08-20T14:54:50.936Z,41.70
2023-08-20T14:57:41.347Z,41.75
2023-08-20T15:03:59.245Z,40.57
2023-08-20T15:06:42.443Z,41.25
2023-08-20T15:09:44.580Z,41.82
2023-08-20T15:29:03.480Z,41.46
2023-08-20T15:31:42.106Z,41.51
2023-08-20T15:34:33.937Z,39.39
2023-08-20T15:37:09.420Z,40.15
2023-08-20T15:39:48.798Z,39.88
2023-08-20T15:42:20.223Z,39.75
2023-08-20T15:45:03.868Z,38.67
2023-08-20T15:47:36.105Z,38.27
2023-08-20T15:50:29.029Z,38.45
2023-08-20T15:53:13.037Z,39.41
2023-08-20T15:55:42.312Z,38.56
2023-08-20T15:58:13.040Z,40.15
2023-08-20T16:00:42.448Z,40.38
2023-08-20T16:03:26.060Z,40.29
2023-08-20T16:06:07.880Z,40.67
2023-08-20T16:09:04.560Z,42.00
2023-08-20T16:11:44.880Z,40.78
2023-08-20T16:20:20.266Z,42.54
2023-08-20T16:25:45.431Z,43.64
2023-08-20T16:28:52.987Z,43.42
2023-08-20T16:31:25.804Z,43.41
2023-08-20T16:34:13.130Z,44.74
2023-08-20T16:36:56.816Z,45.47
2023-08-20T16:40:17.187Z,45.90
2023-08-20T16:42:59.722Z,45.90
2023-08-20T16:50:22.544Z,47.10
2023-08-20T16:52:49.323Z,48.46
2023-08-20T16:55:29.561Z,49.21
2023-08-20T16:58:05.775Z,48.81
2023-08-20T17:01:05.517Z,49.24
2023-08-20T17:06:34.739Z,48.91
2023-08-20T17:12:25.134Z,49.64
2023-08-20T17:16:14.157Z,49.64
2023-08-20T17:36:11.462Z,51.64
2023-08-20T17:42:16.874Z,52.31
2023-08-20T17:47:46.708Z,52.76
2023-08-20T17:50:16.858Z,52.83
2023-08-20T17:53:20.935Z,53.21
2023-08-20T18:02:13.605Z,53.44
2023-08-20T18:14:32.780Z,55.81
2023-08-20T18:17:27.704Z,56.63
2023-08-20T18:23:05.348Z,58.43
2023-08-20T18:25:44.810Z,61.13
2023-08-20T18:28:11.681Z,61.92
2023-08-20T18:30:43.866Z,62.69
2023-08-20T18:36:32.917Z,65.01
2023-08-20T18:38:59.805Z,67.42
2023-08-20T18:41:26.324Z,68.51
2023-08-20T18:43:59.237Z,68.65
2023-08-20T18:46:25.805Z,69.44
2023-08-20T18:49:02.828Z,70.40
2023-08-20T18:51:32.946Z,70.53
2023-08-20T18:54:24.147Z,70.09
2023-08-20T18:56:55.217Z,71.53
2023-08-20T18:59:41.032Z,73.59
2023-08-20T19:02:12.217Z,74.21
2023-08-20T19:04:49.639Z,75.20
2023-08-20T19:07:23.750Z,73.76
2023-08-20T19:09:57.899Z,75.47
2023-08-20T19:12:29.128Z,76.37
2023-08-20T19:15:12.450Z,77.16
2023-08-20T19:17:45.267Z,77.74
2023-08-20T19:26:01.393Z,78.39
2023-08-20T19:28:49.386Z,80.60
2023-08-20T19:35:03.655Z,81.81
2023-08-20T19:37:35.417Z,81.94
2023-08-20T19:40:32.424Z,81.91
2023-08-20T19:43:15.276Z,83.49
2023-08-20T19:45:44.866Z,84.30
2023-08-20T21:36:38.749Z,97.52
2023-08-20T21:53:11.431Z,98.84
2023-08-20T21:56:33.373Z,99.93
2023-08-20T22:10:21.875Z,100.00
2023-08-20T22:19:27.673Z,100.00
2023-08-20T22:32:44.889Z,100.00
2023-08-20T22:35:36.173Z,100.00
2023-08-20T22:45:13.658Z,100.00
2023-08-20T22:59:56.326Z,100.00
2023-08-20T23:17:28.654Z,100.00
2023-08-20T23:20:51.358Z,100.00
2023-08-20T23:25:12.803Z,100.00
2023-08-20T23:37:27.398Z,100.00
